createdAt,value
2022-10-08T00:01:23.700Z,70.30
2022-10-08T00:03:53.229Z,69.70
2022-10-08T00:06:22.407Z,70.50
2022-10-08T00:08:52.156Z,70.80
2022-10-08T00:11:22.460Z,71.60
2022-10-08T00:13:51.346Z,71.10
2022-10-08T00:16:22.573Z,70.90
2022-10-08T00:18:52.141Z,71.10
2022-10-08T00:21:21.843Z,71.40
2022-10-08T00:23:51.578Z,71.60
2022-10-08T00:26:24.191Z,70.70
2022-10-08T00:28:53.610Z,71.20
2022-10-08T00:31:24.283Z,71.60
2022-10-08T00:33:53.143Z,71.80
2022-10-08T00:36:21.828Z,71.30
2022-10-08T00:38:49.932Z,71.50
2022-10-08T00:41:20.696Z,71.80
2022-10-08T00:43:49.850Z,71.40
2022-10-08T00:46:29.807Z,72.10
2022-10-08T00:49:02.477Z,72.50
2022-10-08T00:51:31.275Z,72.00
2022-10-08T00:53:59.491Z,71.20
2022-10-08T00:56:27.419Z,72.20
2022-10-08T00:58:55.406Z,72.20
2022-10-08T01:01:23.211Z,72.60
2022-10-08T01:03:52.352Z,72.30
2022-10-08T01:06:26.995Z,72.50
2022-10-08T01:09:03.414Z,72.20
2022-10-08T01:11:43.534Z,71.90
2022-10-08T01:14:21.774Z,71.90
2022-10-08T01:16:58.527Z,72.30
2022-10-08T01:19:57.493Z,72.80
2022-10-08T01:22:39.617Z,72.50
2022-10-08T01:25:37.492Z,72.50
2022-10-08T01:28:17.845Z,72.90
2022-10-08T01:30:51.207Z,71.90
2022-10-08T01:33:25.451Z,72.70
2022-10-08T01:35:58.392Z,72.40
2022-10-08T01:38:31.493Z,72.20
2022-10-08T01:41:03.475Z,72.20
2022-10-08T01:43:36.679Z,72.50
2022-10-08T01:46:10.184Z,72.00
2022-10-08T01:48:41.986Z,72.40
2022-10-08T01:51:14.519Z,72.30
2022-10-08T01:53:46.784Z,71.90
2022-10-08T01:56:20.816Z,72.50
2022-10-08T01:58:54.310Z,71.30
2022-10-08T02:01:28.616Z,72.70
2022-10-08T02:04:13.473Z,72.00
2022-10-08T02:06:45.766Z,72.40
2022-10-08T02:09:14.581Z,72.40
2022-10-08T02:11:42.368Z,71.80
2022-10-08T02:14:11.706Z,71.90
2022-10-08T02:16:47.460Z,71.60
2022-10-08T02:19:24.051Z,71.80
2022-10-08T02:21:53.958Z,72.20
2022-10-08T02:24:27.774Z,72.30
2022-10-08T02:26:58.914Z,71.60
2022-10-08T02:29:32.792Z,72.70
2022-10-08T02:32:06.770Z,72.30
2022-10-08T02:34:38.725Z,71.90
2022-10-08T02:37:12.857Z,71.90
2022-10-08T02:39:44.445Z,72.10
2022-10-08T02:42:17.828Z,71.70
2022-10-08T02:44:52.247Z,72.50
2022-10-08T02:47:23.962Z,72.20
2022-10-08T02:49:55.830Z,72.00
2022-10-08T02:52:27.992Z,72.20
2022-10-08T02:54:57.418Z,72.30
2022-10-08T02:57:30.303Z,72.40
2022-10-08T02:59:59.843Z,72.20
2022-10-08T03:02:36.263Z,72.40
2022-10-08T03:05:07.699Z,72.90
2022-10-08T03:07:36.124Z,72.00
2022-10-08T03:10:06.839Z,72.00
2022-10-08T03:12:35.026Z,72.00
2022-10-08T03:15:04.456Z,71.90
2022-10-08T03:17:37.064Z,72.40
2022-10-08T03:20:07.097Z,71.60
2022-10-08T03:22:35.349Z,72.10
2022-10-08T03:25:03.165Z,72.50
2022-10-08T03:27:31.010Z,72.20
2022-10-08T03:29:58.795Z,71.80
2022-10-08T03:32:28.288Z,72.00
2022-10-08T03:34:56.084Z,71.70
2022-10-08T03:37:23.827Z,71.70
2022-10-08T03:39:51.606Z,71.80
2022-10-08T03:42:19.490Z,71.60
2022-10-08T03:44:47.280Z,71.60
2022-10-08T03:47:15.080Z,71.70
2022-10-08T03:49:44.196Z,71.90
2022-10-08T03:52:11.956Z,71.60
2022-10-08T03:54:39.734Z,71.80
2022-10-08T03:57:07.489Z,72.10
2022-10-08T03:59:35.283Z,72.00
2022-10-08T04:02:03.058Z,71.80
2022-10-08T04:04:30.859Z,72.20
2022-10-08T04:06:59.938Z,72.00
2022-10-08T04:09:27.753Z,72.10
2022-10-08T04:11:55.563Z,72.00
2022-10-08T04:14:23.328Z,72.40
2022-10-08T04:16:51.099Z,72.50
2022-10-08T04:19:18.872Z,72.40
2022-10-08T04:21:46.701Z,72.30
2022-10-08T04:24:16.119Z,72.40
2022-10-08T04:26:43.913Z,72.30
2022-10-08T04:29:12.528Z,72.40
2022-10-08T04:31:40.923Z,72.10
2022-10-08T04:34:10.298Z,72.50
2022-10-08T04:36:38.086Z,72.70
2022-10-08T04:39:05.868Z,72.70
2022-10-08T04:41:34.990Z,72.90
2022-10-08T04:44:02.770Z,73.10
2022-10-08T04:46:30.709Z,73.20
2022-10-08T04:48:59.991Z,72.90
2022-10-08T04:51:28.595Z,72.50
2022-10-08T04:53:57.526Z,72.90
2022-10-08T04:56:27.365Z,72.80
2022-10-08T04:58:57.737Z,72.40
2022-10-08T05:01:26.684Z,72.90
2022-10-08T05:03:56.043Z,72.70
2022-10-08T05:06:26.989Z,72.90
2022-10-08T05:08:55.374Z,73.00
2022-10-08T05:11:25.972Z,73.30
2022-10-08T05:13:54.838Z,73.40
2022-10-08T05:16:25.345Z,73.00
2022-10-08T05:18:53.526Z,72.80
2022-10-08T05:21:23.691Z,72.90
2022-10-08T05:23:56.547Z,72.80
2022-10-08T05:26:46.534Z,72.80
2022-10-08T05:29:14.434Z,73.20
2022-10-08T05:31:43.569Z,73.10
2022-10-08T05:34:12.705Z,73.70
2022-10-08T05:36:40.567Z,73.80
2022-10-08T05:39:08.798Z,73.30
2022-10-08T05:41:37.811Z,73.40
2022-10-08T05:44:07.087Z,73.20
2022-10-08T05:46:36.833Z,73.20
2022-10-08T05:49:08.222Z,73.00
2022-10-08T05:51:38.368Z,73.30
2022-10-08T05:54:06.432Z,73.30
2022-10-08T05:56:34.426Z,73.30
2022-10-08T05:59:02.272Z,73.40
2022-10-08T06:01:32.020Z,73.60
2022-10-08T06:04:07.893Z,73.50
2022-10-08T06:06:38.390Z,73.70
2022-10-08T06:09:07.113Z,73.50
2022-10-08T06:11:37.340Z,73.30
2022-10-08T06:14:07.062Z,73.20
2022-10-08T06:16:36.305Z,75.40
2022-10-08T06:19:04.501Z,76.40
2022-10-08T06:21:33.331Z,77.00
2022-10-08T06:24:04.649Z,77.60
2022-10-08T06:26:36.076Z,78.00
2022-10-08T06:29:06.037Z,78.00
2022-10-08T06:31:34.496Z,78.30
2022-10-08T06:34:04.061Z,79.10
2022-10-08T06:36:32.540Z,79.60
2022-10-08T06:39:04.280Z,80.50
2022-10-08T06:41:34.600Z,81.10
2022-10-08T06:44:02.588Z,81.30
2022-10-08T06:46:31.299Z,81.70
2022-10-08T06:49:00.275Z,81.00
2022-10-08T06:51:29.076Z,80.90
2022-10-08T06:54:02.903Z,81.20
2022-10-08T06:56:37.120Z,81.10
2022-10-08T06:59:05.705Z,81.30
2022-10-08T07:01:34.898Z,81.40
2022-10-08T07:04:04.219Z,81.90
2022-10-08T07:06:32.018Z,82.00
2022-10-08T07:09:01.518Z,82.00
2022-10-08T07:11:30.158Z,81.90
2022-10-08T07:13:59.341Z,82.40
2022-10-08T07:16:28.637Z,82.70
2022-10-08T07:18:58.199Z,82.10
2022-10-08T07:21:26.153Z,82.20
2022-10-08T07:23:53.913Z,82.30
2022-10-08T07:26:23.498Z,82.30
2022-10-08T07:28:53.144Z,82.40
2022-10-08T07:31:23.816Z,82.40
2022-10-08T07:33:52.181Z,82.50
2022-10-08T07:36:22.349Z,82.30
2022-10-08T07:38:54.530Z,82.70
2022-10-08T07:41:22.364Z,82.60
2022-10-08T07:43:52.204Z,82.80
2022-10-08T07:46:20.382Z,82.80
2022-10-08T07:48:50.666Z,82.20
2022-10-08T07:51:56.539Z,81.10
2022-10-08T07:54:24.577Z,79.60
2022-10-08T08:00:40.098Z,75.90
2022-10-08T08:03:15.369Z,74.30
2022-10-08T08:05:44.472Z,74.30
2022-10-08T08:08:12.297Z,73.30
2022-10-08T08:10:40.054Z,72.40
2022-10-08T08:13:07.864Z,71.60
2022-10-08T08:15:35.620Z,70.30
2022-10-08T08:18:03.410Z,70.80
2022-10-08T08:20:31.179Z,71.30
2022-10-08T08:23:00.286Z,72.20
2022-10-08T08:25:28.609Z,71.50
2022-10-08T08:27:56.354Z,72.10
2022-10-08T08:30:24.224Z,72.20
2022-10-08T08:32:52.260Z,72.90
2022-10-08T08:35:20.016Z,74.00
2022-10-08T08:37:48.224Z,73.50
2022-10-08T08:40:17.499Z,72.90
2022-10-08T08:42:54.534Z,74.10
2022-10-08T08:45:45.943Z,74.00
2022-10-08T08:48:20.158Z,74.60
2022-10-08T08:50:51.873Z,74.00
2022-10-08T08:53:20.552Z,74.30
2022-10-08T08:55:53.983Z,73.80
2022-10-08T08:58:34.258Z,74.20
2022-10-08T09:01:14.171Z,74.70
2022-10-08T09:03:44.834Z,73.70
2022-10-08T09:06:15.737Z,73.80
2022-10-08T09:08:48.676Z,73.90
2022-10-08T09:11:21.527Z,74.30
2022-10-08T09:13:55.762Z,73.70
2022-10-08T09:16:25.086Z,72.70
2022-10-08T09:18:52.906Z,71.00
2022-10-08T09:21:21.167Z,70.50
2022-10-08T09:23:49.361Z,69.60
2022-10-08T09:26:21.354Z,68.40
2022-10-08T09:28:50.914Z,68.90
2022-10-08T09:31:25.898Z,69.60
2022-10-08T09:34:00.835Z,69.70
2022-10-08T09:36:36.035Z,69.30
2022-10-08T09:39:06.564Z,70.40
2022-10-08T09:41:35.712Z,69.70
2022-10-08T09:44:15.423Z,70.50
2022-10-08T09:46:43.668Z,70.30
2022-10-08T09:49:33.163Z,69.80
2022-10-08T09:52:07.932Z,69.00
2022-10-08T09:54:42.360Z,68.70
2022-10-08T09:57:16.001Z,69.70
2022-10-08T09:59:51.171Z,68.60
2022-10-08T10:02:30.748Z,69.20
2022-10-08T10:04:59.878Z,68.40
2022-10-08T10:07:38.487Z,67.90
2022-10-08T10:10:17.708Z,67.70
2022-10-08T10:12:50.142Z,67.50
2022-10-08T10:15:22.882Z,68.90
2022-10-08T10:17:54.247Z,66.80
2022-10-08T10:20:27.145Z,66.80
2022-10-08T10:22:59.338Z,66.20
2022-10-08T10:25:35.466Z,65.30
2022-10-08T10:28:09.040Z,64.10
2022-10-08T10:30:48.561Z,64.90
2022-10-08T10:33:21.424Z,64.80
2022-10-08T10:35:54.592Z,63.20
2022-10-08T10:38:27.576Z,63.70
2022-10-08T10:41:08.484Z,65.40
2022-10-08T10:43:45.053Z,66.60
2022-10-08T10:46:31.803Z,66.80
2022-10-08T10:49:01.014Z,66.70
2022-10-08T10:51:40.819Z,66.30
2022-10-08T10:54:25.419Z,65.30
2022-10-08T10:56:58.964Z,64.70
2022-10-08T10:59:44.856Z,66.10
2022-10-08T11:02:22.734Z,65.70
2022-10-08T11:05:01.959Z,66.20
2022-10-08T11:07:50.595Z,65.70
2022-10-08T11:10:35.606Z,66.10
2022-10-08T11:13:12.584Z,67.40
2022-10-08T11:15:45.817Z,69.20
2022-10-08T11:18:25.681Z,69.80
2022-10-08T11:21:05.873Z,70.30
2022-10-08T11:23:53.886Z,70.30
2022-10-08T11:26:29.886Z,70.10
2022-10-08T11:29:06.890Z,70.30
2022-10-08T11:31:43.185Z,70.20
2022-10-08T11:34:22.405Z,70.10
2022-10-08T11:36:59.115Z,69.70
2022-10-08T11:39:32.830Z,69.20
2022-10-08T11:42:09.273Z,68.60
2022-10-08T11:44:38.129Z,68.40
2022-10-08T11:47:53.035Z,68.70
2022-10-08T11:50:33.413Z,68.10
2022-10-08T11:53:14.718Z,68.70
2022-10-08T11:55:52.071Z,69.00
2022-10-08T11:58:23.731Z,68.50
2022-10-08T12:00:54.169Z,67.50
2022-10-08T12:03:27.086Z,67.90
2022-10-08T12:05:59.289Z,67.50
2022-10-08T12:08:51.295Z,67.10
2022-10-08T12:11:58.678Z,67.80
2022-10-08T12:14:33.788Z,65.10
2022-10-08T12:17:12.674Z,65.40
2022-10-08T12:20:02.760Z,64.30
2022-10-08T12:22:46.001Z,63.70
2022-10-08T12:25:30.111Z,64.00
2022-10-08T12:28:50.345Z,63.30
2022-10-08T12:31:39.274Z,64.90
2022-10-08T12:34:17.638Z,64.10
2022-10-08T12:36:55.220Z,63.50
2022-10-08T12:39:34.112Z,64.10
2022-10-08T12:42:10.439Z,62.90
2022-10-08T12:44:51.955Z,63.60
2022-10-08T12:47:32.324Z,63.70
2022-10-08T12:50:06.624Z,64.00
2022-10-08T12:52:36.287Z,63.70
2022-10-08T12:55:06.488Z,64.10
2022-10-08T12:57:36.963Z,64.30
2022-10-08T13:00:10.426Z,64.10
2022-10-08T13:02:40.207Z,64.10
2022-10-08T13:05:25.136Z,64.70
2022-10-08T13:07:53.090Z,63.60
2022-10-08T13:10:23.375Z,63.50
2022-10-08T13:13:01.538Z,63.00
2022-10-08T13:15:32.509Z,63.50
2022-10-08T13:18:00.709Z,63.70
2022-10-08T13:20:28.470Z,62.20
2022-10-08T13:22:56.259Z,61.80
2022-10-08T13:25:41.124Z,62.40
2022-10-08T13:28:13.877Z,63.20
2022-10-08T13:30:46.257Z,62.00
2022-10-08T13:33:18.950Z,61.10
2022-10-08T13:35:53.385Z,62.20
2022-10-08T13:38:25.505Z,64.10
2022-10-08T13:40:58.466Z,64.20
2022-10-08T13:43:27.148Z,65.10
2022-10-08T13:45:56.339Z,65.50
2022-10-08T13:48:24.214Z,65.30
2022-10-08T13:50:53.198Z,65.30
2022-10-08T13:53:23.699Z,65.70
2022-10-08T13:55:51.919Z,65.70
2022-10-08T13:58:21.582Z,65.80
2022-10-08T14:00:49.830Z,65.90
2022-10-08T14:03:19.254Z,66.70
2022-10-08T14:05:48.941Z,68.10
2022-10-08T14:08:19.569Z,66.70
2022-10-08T14:10:47.440Z,67.00
2022-10-08T14:13:16.642Z,66.90
2022-10-08T14:15:44.714Z,66.50
2022-10-08T14:18:12.511Z,66.80
2022-10-08T14:20:41.798Z,67.50
2022-10-08T14:23:11.475Z,65.50
2022-10-08T14:25:39.240Z,65.50
2022-10-08T14:28:07.070Z,66.30
2022-10-08T14:30:34.924Z,65.80
2022-10-08T14:33:03.516Z,65.30
2022-10-08T14:35:33.690Z,65.80
2022-10-08T14:38:02.790Z,66.90
2022-10-08T14:40:30.560Z,66.40
2022-10-08T14:42:58.705Z,66.70
2022-10-08T14:45:26.554Z,67.10
2022-10-08T14:47:54.340Z,64.50
2022-10-08T14:50:22.656Z,65.50
2022-10-08T14:52:51.228Z,65.40
2022-10-08T14:55:20.868Z,66.40
2022-10-08T14:57:48.634Z,66.30
2022-10-08T15:00:16.834Z,66.40
2022-10-08T15:02:44.817Z,67.20
2022-10-08T15:05:12.759Z,66.10
2022-10-08T15:07:40.555Z,67.70
2022-10-08T15:10:09.492Z,68.10
2022-10-08T15:12:38.816Z,67.60
2022-10-08T15:15:07.497Z,67.40
2022-10-08T15:17:35.336Z,67.10
2022-10-08T15:20:03.160Z,67.00
2022-10-08T15:22:30.928Z,66.20
2022-10-08T15:24:58.676Z,68.00
2022-10-08T15:27:26.478Z,67.00
2022-10-08T15:29:55.608Z,67.20
2022-10-08T15:32:27.175Z,66.60
2022-10-08T15:34:58.184Z,67.50
2022-10-08T15:37:25.962Z,67.40
2022-10-08T15:39:53.723Z,67.40
2022-10-08T15:42:21.464Z,66.90
2022-10-08T15:44:49.252Z,66.40
2022-10-08T15:47:18.412Z,67.40
2022-10-08T15:49:46.253Z,67.20
2022-10-08T15:52:15.744Z,67.60
2022-10-08T15:54:44.019Z,67.40
2022-10-08T15:57:13.275Z,67.30
2022-10-08T15:59:41.542Z,67.70
2022-10-08T16:02:14.120Z,68.50
2022-10-08T16:04:46.575Z,68.20
2022-10-08T16:07:14.356Z,68.30
2022-10-08T16:09:42.149Z,68.20
2022-10-08T16:12:09.922Z,68.40
2022-10-08T16:14:37.901Z,68.90
2022-10-08T16:17:05.796Z,69.10
2022-10-08T16:19:33.628Z,69.30
2022-10-08T16:22:02.746Z,68.80
2022-10-08T16:24:30.655Z,69.00
2022-10-08T16:26:58.437Z,69.50
2022-10-08T16:29:26.231Z,69.30
2022-10-08T16:31:53.992Z,69.60
2022-10-08T16:34:26.924Z,69.60
2022-10-08T16:36:55.040Z,70.00
2022-10-08T16:39:25.092Z,69.90
2022-10-08T16:41:53.040Z,70.00
2022-10-08T16:44:21.882Z,70.20
2022-10-08T16:46:51.661Z,69.90
2022-10-08T16:49:24.492Z,70.20
2022-10-08T16:51:53.969Z,70.50
2022-10-08T16:54:22.075Z,70.50
2022-10-08T16:56:51.648Z,70.90
2022-10-08T16:59:21.339Z,71.20
2022-10-08T17:01:51.764Z,71.00
2022-10-08T17:04:20.643Z,71.20
2022-10-08T17:06:49.027Z,71.10
2022-10-08T17:09:16.884Z,71.10
2022-10-08T17:11:44.731Z,71.80
2022-10-08T17:14:14.100Z,72.80
2022-10-08T17:16:43.243Z,73.10
2022-10-08T17:19:11.897Z,72.90
2022-10-08T17:21:39.872Z,72.60
2022-10-08T17:24:08.288Z,72.30
2022-10-08T17:26:36.236Z,72.40
2022-10-08T17:29:05.602Z,72.40
2022-10-08T17:31:35.690Z,72.20
2022-10-08T17:34:04.905Z,72.50
2022-10-08T17:36:34.551Z,72.70
2022-10-08T17:39:05.325Z,72.50
2022-10-08T17:41:35.320Z,72.60
2022-10-08T17:44:05.594Z,72.70
2022-10-08T17:46:36.211Z,72.90
2022-10-08T17:49:05.516Z,73.00
2022-10-08T17:51:33.854Z,73.00
2022-10-08T17:54:03.485Z,73.00
2022-10-08T17:56:31.840Z,73.30
2022-10-08T17:59:00.085Z,73.10
2022-10-08T18:01:29.628Z,73.10
2022-10-08T18:04:01.265Z,73.30
2022-10-08T18:06:30.637Z,73.20
2022-10-08T18:08:59.630Z,73.40
2022-10-08T18:11:28.765Z,73.70
2022-10-08T18:13:56.770Z,73.40
2022-10-08T18:16:25.480Z,73.30
2022-10-08T18:18:53.458Z,73.50
2022-10-08T18:21:22.989Z,73.50
2022-10-08T18:23:51.396Z,73.50
2022-10-08T18:26:20.896Z,73.60
2022-10-08T18:28:51.275Z,73.50
2022-10-08T18:31:20.909Z,73.60
2022-10-08T18:33:51.696Z,73.60
2022-10-08T18:36:22.679Z,73.70
2022-10-08T18:38:55.089Z,73.70
2022-10-08T18:41:24.516Z,73.70
2022-10-08T18:43:52.359Z,73.70
2022-10-08T18:46:21.822Z,73.90
2022-10-08T18:48:50.555Z,74.00
2022-10-08T18:51:21.295Z,74.10
2022-10-08T18:53:51.604Z,74.40
2022-10-08T18:56:21.577Z,74.20
2022-10-08T18:58:50.547Z,74.00
2022-10-08T19:01:20.738Z,74.10
2022-10-08T19:03:49.792Z,74.20
2022-10-08T19:06:19.080Z,74.30
2022-10-08T19:08:47.037Z,74.30
2022-10-08T19:11:18.514Z,74.00
2022-10-08T19:13:46.395Z,74.20
2022-10-08T19:16:15.353Z,74.40
2022-10-08T19:18:45.620Z,74.40
2022-10-08T19:21:14.598Z,74.40
2022-10-08T19:23:42.574Z,74.40
2022-10-08T19:26:10.563Z,74.10
2022-10-08T19:28:40.878Z,74.20
2022-10-08T19:31:16.882Z,74.10
2022-10-08T19:33:49.894Z,74.80
2022-10-08T19:36:17.996Z,74.10
2022-10-08T19:38:45.964Z,74.50
2022-10-08T19:41:13.740Z,74.60
2022-10-08T19:43:44.274Z,74.80
2022-10-08T19:46:12.148Z,74.50
2022-10-08T19:48:39.976Z,75.00
2022-10-08T19:51:10.010Z,73.90
2022-10-08T19:53:38.973Z,74.00
2022-10-08T19:56:09.855Z,74.20
2022-10-08T19:58:38.031Z,74.40
2022-10-08T20:01:09.544Z,74.40
2022-10-08T20:03:37.834Z,74.40
2022-10-08T20:06:08.010Z,74.70
2022-10-08T20:08:36.436Z,74.70
2022-10-08T20:11:05.101Z,73.00
2022-10-08T20:13:33.233Z,72.70
2022-10-08T20:16:03.783Z,72.50
2022-10-08T20:18:33.124Z,72.50
2022-10-08T20:21:02.223Z,72.50
2022-10-08T20:23:30.082Z,72.90
2022-10-08T20:26:08.832Z,72.80
2022-10-08T20:28:36.722Z,72.70
2022-10-08T20:31:12.694Z,72.40
2022-10-08T20:33:42.243Z,72.30
2022-10-08T20:36:10.736Z,72.20
2022-10-08T20:38:38.675Z,72.20
2022-10-08T20:41:07.606Z,72.40
2022-10-08T20:43:37.296Z,72.00
2022-10-08T20:46:06.858Z,72.30
2022-10-08T20:48:34.863Z,72.30
2022-10-08T20:51:04.639Z,71.90
2022-10-08T20:53:33.094Z,71.70
2022-10-08T20:56:04.168Z,72.00
2022-10-08T20:58:32.276Z,72.10
2022-10-08T21:01:05.443Z,71.30
2022-10-08T21:03:35.987Z,71.70
2022-10-08T21:06:06.063Z,71.80
2022-10-08T21:08:36.537Z,71.90
2022-10-08T21:11:05.420Z,71.90
2022-10-08T21:13:34.351Z,72.00
2022-10-08T21:16:03.492Z,71.90
2022-10-08T21:18:31.505Z,71.70
2022-10-08T21:21:02.691Z,71.90
2022-10-08T21:23:32.055Z,71.60
2022-10-08T21:26:11.360Z,71.90
2022-10-08T21:28:39.518Z,72.00
2022-10-08T21:31:08.803Z,71.90
2022-10-08T21:33:37.189Z,71.90
2022-10-08T21:36:05.846Z,72.20
2022-10-08T21:38:35.251Z,71.90
2022-10-08T21:41:11.091Z,72.30
2022-10-08T21:43:39.443Z,71.90
2022-10-08T21:46:07.864Z,71.60
2022-10-08T21:48:35.750Z,72.10
2022-10-08T21:51:05.739Z,72.00
2022-10-08T21:53:37.811Z,71.70
2022-10-08T21:56:07.632Z,71.90
2022-10-08T21:58:38.378Z,72.10
2022-10-08T22:01:07.164Z,72.00
2022-10-08T22:03:35.598Z,72.00
2022-10-08T22:06:05.203Z,71.90
2022-10-08T22:08:33.095Z,72.00
2022-10-08T22:11:04.989Z,72.10
2022-10-08T22:13:32.972Z,72.40
2022-10-08T22:16:02.838Z,72.20
2022-10-08T22:18:32.614Z,72.10
2022-10-08T22:21:02.304Z,72.40
2022-10-08T22:23:30.333Z,72.30
2022-10-08T22:25:59.829Z,72.30
2022-10-08T22:28:31.417Z,72.40
2022-10-08T22:31:00.608Z,72.60
2022-10-08T22:33:28.963Z,72.20
2022-10-08T22:36:01.423Z,72.30
2022-10-08T22:38:29.283Z,72.30
2022-10-08T22:41:02.547Z,71.90
2022-10-08T22:43:31.795Z,72.30
2022-10-08T22:46:02.890Z,72.20
2022-10-08T22:48:30.760Z,72.20
2022-10-08T22:51:02.645Z,72.30
2022-10-08T22:53:30.819Z,71.90
2022-10-08T22:55:59.120Z,71.80
2022-10-08T22:58:26.919Z,72.10
2022-10-08T23:01:00.057Z,72.10
2022-10-08T23:03:28.172Z,71.60
2022-10-08T23:06:06.878Z,71.80
2022-10-08T23:08:35.403Z,71.50
2022-10-08T23:11:03.897Z,71.50
2022-10-08T23:13:32.324Z,72.10
2022-10-08T23:16:03.356Z,71.80
2022-10-08T23:18:31.588Z,72.10
2022-10-08T23:21:02.269Z,72.40
2022-10-08T23:23:30.818Z,72.10
2022-10-08T23:26:00.570Z,72.20
2022-10-08T23:28:29.314Z,72.10
2022-10-08T23:31:06.052Z,72.00
2022-10-08T23:33:33.998Z,72.50
2022-10-08T23:36:01.760Z,72.30
2022-10-08T23:38:29.530Z,71.80
2022-10-08T23:41:00.833Z,71.90
2022-10-08T23:43:29.091Z,72.40
2022-10-08T23:45:56.968Z,72.20
2022-10-08T23:48:26.154Z,71.90
2022-10-08T23:50:54.400Z,71.90
2022-10-08T23:53:23.082Z,72.30
2022-10-08T23:55:51.269Z,72.30
2022-10-08T23:58:19.447Z,72.10
